sensor_id;sensor_type;location;lat;lon;timestamp;pressure;altitude;pressure_sealevel;temperature;humidity
54870;BME280;40756;-37.950;145.008;2022-12-18T00:01:42;102177.65;;;20.16;34.86
54870;BME280;40756;-37.950;145.008;2022-12-18T00:04:18;102174.61;;;20.45;33.52
54870;BME280;40756;-37.950;145.008;2022-12-18T00:06:49;102168.18;;;20.77;34.13
54870;BME280;40756;-37.950;145.008;2022-12-18T00:09:18;102164.89;;;21.11;33.33
54870;BME280;40756;-37.950;145.008;2022-12-18T00:11:48;102161.47;;;21.45;33.44
54870;BME280;40756;-37.950;145.008;2022-12-18T00:14:22;102162.75;;;21.43;32.20
54870;BME280;40756;-37.950;145.008;2022-12-18T00:16:52;102164.70;;;21.73;32.12
54870;BME280;40756;-37.950;145.008;2022-12-18T00:19:22;102166.21;;;21.82;31.66
54870;BME280;40756;-37.950;145.008;2022-12-18T00:21:51;102161.66;;;21.82;31.15
54870;BME280;40756;-37.950;145.008;2022-12-18T00:24:20;102168.84;;;22.01;31.01
54870;BME280;40756;-37.950;145.008;2022-12-18T00:26:50;102160.63;;;21.74;30.54
54870;BME280;40756;-37.950;145.008;2022-12-18T00:29:19;102158.23;;;22.00;30.22
54870;BME280;40756;-37.950;145.008;2022-12-18T00:31:49;102156.43;;;21.88;30.23
54870;BME280;40756;-37.950;145.008;2022-12-18T00:34:18;102149.56;;;22.01;30.91
54870;BME280;40756;-37.950;145.008;2022-12-18T00:36:48;102152.51;;;22.35;30.86
54870;BME280;40756;-37.950;145.008;2022-12-18T00:39:18;102155.65;;;22.61;29.37
54870;BME280;40756;-37.950;145.008;2022-12-18T00:41:49;102146.67;;;22.76;29.57
54870;BME280;40756;-37.950;145.008;2022-12-18T00:44:19;102143.85;;;22.79;29.59
54870;BME280;40756;-37.950;145.008;2022-12-18T00:46:49;102141.38;;;22.63;29.50
54870;BME280;40756;-37.950;145.008;2022-12-18T00:49:19;102151.58;;;22.80;30.09
54870;BME280;40756;-37.950;145.008;2022-12-18T00:51:50;102146.18;;;22.24;29.96
54870;BME280;40756;-37.950;145.008;2022-12-18T00:54:20;102143.69;;;22.04;30.31
54870;BME280;40756;-37.950;145.008;2022-12-18T00:56:50;102141.35;;;22.72;30.41
54870;BME280;40756;-37.950;145.008;2022-12-18T00:59:19;102135.64;;;22.40;31.24
54870;BME280;40756;-37.950;145.008;2022-12-18T01:01:49;102133.15;;;22.13;31.29
54870;BME280;40756;-37.950;145.008;2022-12-18T01:04:18;102134.78;;;22.42;30.59
54870;BME280;40756;-37.950;145.008;2022-12-18T01:06:47;102130.48;;;22.69;31.06
54870;BME280;40756;-37.950;145.008;2022-12-18T01:09:17;102133.37;;;23.30;30.08
54870;BME280;40756;-37.950;145.008;2022-12-18T01:11:46;102120.86;;;22.72;29.85
54870;BME280;40756;-37.950;145.008;2022-12-18T01:14:16;102125.68;;;22.78;30.64
54870;BME280;40756;-37.950;145.008;2022-12-18T01:16:45;102123.78;;;23.36;29.80
54870;BME280;40756;-37.950;145.008;2022-12-18T01:19:15;102121.14;;;23.17;29.86
54870;BME280;40756;-37.950;145.008;2022-12-18T01:21:44;102122.43;;;23.11;29.80
54870;BME280;40756;-37.950;145.008;2022-12-18T01:24:14;102121.26;;;23.33;29.85
54870;BME280;40756;-37.950;145.008;2022-12-18T01:26:43;102123.27;;;22.93;29.92
54870;BME280;40756;-37.950;145.008;2022-12-18T01:29:13;102104.04;;;23.74;29.70
54870;BME280;40756;-37.950;145.008;2022-12-18T01:31:42;102110.92;;;22.67;29.79
54870;BME280;40756;-37.950;145.008;2022-12-18T01:34:12;102108.23;;;22.88;29.83
54870;BME280;40756;-37.950;145.008;2022-12-18T01:36:42;102105.16;;;23.15;30.04
54870;BME280;40756;-37.950;145.008;2022-12-18T01:39:13;102102.20;;;23.24;29.91
54870;BME280;40756;-37.950;145.008;2022-12-18T01:41:43;102098.57;;;23.53;29.27
54870;BME280;40756;-37.950;145.008;2022-12-18T01:45:09;102096.41;;;24.46;30.22
54870;BME280;40756;-37.950;145.008;2022-12-18T01:47:54;102089.42;;;24.20;28.24
54870;BME280;40756;-37.950;145.008;2022-12-18T01:50:27;102088.79;;;24.33;28.35
54870;BME280;40756;-37.950;145.008;2022-12-18T01:53:02;102085.99;;;24.29;27.43
54870;BME280;40756;-37.950;145.008;2022-12-18T01:55:37;102085.35;;;24.77;27.49
54870;BME280;40756;-37.950;145.008;2022-12-18T01:58:11;102073.86;;;24.40;26.52
54870;BME280;40756;-37.950;145.008;2022-12-18T02:00:41;102075.78;;;24.18;26.98
54870;BME280;40756;-37.950;145.008;2022-12-18T02:03:11;102067.81;;;24.76;27.11
54870;BME280;40756;-37.950;145.008;2022-12-18T02:05:46;102061.98;;;25.09;28.13
54870;BME280;40756;-37.950;145.008;2022-12-18T02:08:23;102058.34;;;25.08;27.22
54870;BME280;40756;-37.950;145.008;2022-12-18T02:11:03;102056.90;;;25.36;26.68
54870;BME280;40756;-37.950;145.008;2022-12-18T02:13:41;102055.16;;;25.40;26.01
54870;BME280;40756;-37.950;145.008;2022-12-18T02:16:19;102048.60;;;25.18;26.02
54870;BME280;40756;-37.950;145.008;2022-12-18T02:18:53;102051.36;;;25.09;25.36
54870;BME280;40756;-37.950;145.008;2022-12-18T02:21:31;102049.25;;;25.53;25.43
54870;BME280;40756;-37.950;145.008;2022-12-18T02:24:16;102044.43;;;25.43;25.49
54870;BME280;40756;-37.950;145.008;2022-12-18T02:26:51;102032.16;;;25.53;25.13
54870;BME280;40756;-37.950;145.008;2022-12-18T02:29:25;102027.91;;;25.44;25.78
54870;BME280;40756;-37.950;145.008;2022-12-18T02:31:57;102029.48;;;26.13;26.44
54870;BME280;40756;-37.950;145.008;2022-12-18T02:34:29;102024.98;;;26.02;25.35
54870;BME280;40756;-37.950;145.008;2022-12-18T02:37:03;102018.88;;;26.62;26.54
54870;BME280;40756;-37.950;145.008;2022-12-18T02:39:36;102030.43;;;26.28;25.09
54870;BME280;40756;-37.950;145.008;2022-12-18T02:42:06;102019.81;;;26.58;24.73
54870;BME280;40756;-37.950;145.008;2022-12-18T02:44:43;102020.79;;;26.49;24.47
54870;BME280;40756;-37.950;145.008;2022-12-18T02:47:15;102016.33;;;25.69;25.16
54870;BME280;40756;-37.950;145.008;2022-12-18T02:49:57;102009.65;;;25.88;26.10
54870;BME280;40756;-37.950;145.008;2022-12-18T02:52:34;102010.38;;;24.87;25.62
54870;BME280;40756;-37.950;145.008;2022-12-18T02:55:19;102003.11;;;25.28;26.06
54870;BME280;40756;-37.950;145.008;2022-12-18T02:57:56;102001.89;;;25.72;26.48
54870;BME280;40756;-37.950;145.008;2022-12-18T03:00:32;101996.12;;;26.07;26.03
54870;BME280;40756;-37.950;145.008;2022-12-18T03:03:07;102001.29;;;26.04;25.90
54870;BME280;40756;-37.950;145.008;2022-12-18T03:05:43;102001.65;;;25.83;25.78
54870;BME280;40756;-37.950;145.008;2022-12-18T03:08:18;101993.25;;;26.60;25.40
54870;BME280;40756;-37.950;145.008;2022-12-18T03:10:53;101990.48;;;26.73;25.09
54870;BME280;40756;-37.950;145.008;2022-12-18T03:13:28;101990.17;;;26.03;25.54
54870;BME280;40756;-37.950;145.008;2022-12-18T03:16:01;101985.87;;;25.42;25.39
54870;BME280;40756;-37.950;145.008;2022-12-18T03:18:36;101989.87;;;26.00;25.49
54870;BME280;40756;-37.950;145.008;2022-12-18T03:21:08;101984.09;;;25.97;25.92
54870;BME280;40756;-37.950;145.008;2022-12-18T03:23:42;101976.99;;;26.01;25.13
54870;BME280;40756;-37.950;145.008;2022-12-18T03:26:17;101985.27;;;25.98;25.36
54870;BME280;40756;-37.950;145.008;2022-12-18T03:28:51;101969.29;;;26.05;24.68
54870;BME280;40756;-37.950;145.008;2022-12-18T03:31:22;101975.63;;;25.58;24.84
54870;BME280;40756;-37.950;145.008;2022-12-18T03:33:54;101964.27;;;25.88;25.35
54870;BME280;40756;-37.950;145.008;2022-12-18T03:36:25;101962.13;;;26.85;26.52
54870;BME280;40756;-37.950;145.008;2022-12-18T03:38:55;101962.06;;;26.06;24.38
54870;BME280;40756;-37.950;145.008;2022-12-18T03:41:29;101966.77;;;25.74;24.88
54870;BME280;40756;-37.950;145.008;2022-12-18T03:44:08;101967.11;;;26.01;25.01
54870;BME280;40756;-37.950;145.008;2022-12-18T03:46:45;101962.74;;;26.91;24.89
54870;BME280;40756;-37.950;145.008;2022-12-18T03:49:23;101958.75;;;27.35;25.29
54870;BME280;40756;-37.950;145.008;2022-12-18T03:51:59;101956.76;;;26.63;23.66
54870;BME280;40756;-37.950;145.008;2022-12-18T03:54:32;101957.07;;;26.53;23.82
54870;BME280;40756;-37.950;145.008;2022-12-18T03:57:09;101950.72;;;26.47;23.86
54870;BME280;40756;-37.950;145.008;2022-12-18T03:59:41;101953.09;;;25.97;24.07
54870;BME280;40756;-37.950;145.008;2022-12-18T04:02:13;101948.73;;;27.08;24.33
54870;BME280;40756;-37.950;145.008;2022-12-18T04:04:44;101947.10;;;26.38;24.46
54870;BME280;40756;-37.950;145.008;2022-12-18T04:07:17;101942.94;;;26.68;24.19
54870;BME280;40756;-37.950;145.008;2022-12-18T04:09:48;101942.63;;;26.55;23.75
54870;BME280;40756;-37.950;145.008;2022-12-18T04:12:18;101939.71;;;26.98;24.00
54870;BME280;40756;-37.950;145.008;2022-12-18T04:14:47;101932.92;;;26.23;23.46
54870;BME280;40756;-37.950;145.008;2022-12-18T04:17:17;101926.26;;;26.39;24.36
54870;BME280;40756;-37.950;145.008;2022-12-18T04:19:47;101926.23;;;26.59;24.60
54870;BME280;40756;-37.950;145.008;2022-12-18T04:22:16;101920.73;;;25.61;24.80
54870;BME280;40756;-37.950;145.008;2022-12-18T04:24:46;101920.20;;;24.77;25.33
54870;BME280;40756;-37.950;145.008;2022-12-18T04:27:15;101925.60;;;25.94;24.85
54870;BME280;40756;-37.950;145.008;2022-12-18T04:29:44;101918.92;;;26.16;24.83
54870;BME280;40756;-37.950;145.008;2022-12-18T04:32:14;101913.18;;;25.55;24.67
54870;BME280;40756;-37.950;145.008;2022-12-18T04:34:43;101918.04;;;25.89;24.77
54870;BME280;40756;-37.950;145.008;2022-12-18T04:37:12;101904.20;;;25.51;24.85
54870;BME280;40756;-37.950;145.008;2022-12-18T04:39:42;101910.89;;;25.74;25.06
54870;BME280;40756;-37.950;145.008;2022-12-18T04:42:11;101906.06;;;25.57;24.81
54870;BME280;40756;-37.950;145.008;2022-12-18T04:44:42;101895.71;;;25.15;25.35
54870;BME280;40756;-37.950;145.008;2022-12-18T04:47:12;101895.04;;;25.39;25.86
54870;BME280;40756;-37.950;145.008;2022-12-18T04:49:42;101886.64;;;25.42;25.84
54870;BME280;40756;-37.950;145.008;2022-12-18T04:52:11;101880.09;;;26.25;26.06
54870;BME280;40756;-37.950;145.008;2022-12-18T04:54:40;101883.00;;;26.55;25.86
54870;BME280;40756;-37.950;145.008;2022-12-18T04:57:10;101876.17;;;26.92;25.60
54870;BME280;40756;-37.950;145.008;2022-12-18T04:59:39;101874.45;;;26.53;25.17
54870;BME280;40756;-37.950;145.008;2022-12-18T05:02:10;101870.75;;;26.41;24.79
54870;BME280;40756;-37.950;145.008;2022-12-18T05:04:40;101870.50;;;26.48;24.90
54870;BME280;40756;-37.950;145.008;2022-12-18T05:07:09;101863.55;;;26.50;24.60
54870;BME280;40756;-37.950;145.008;2022-12-18T05:09:38;101863.83;;;26.36;24.04
54870;BME280;40756;-37.950;145.008;2022-12-18T05:12:08;101872.14;;;26.14;24.68
54870;BME280;40756;-37.950;145.008;2022-12-18T05:14:37;101859.23;;;25.65;25.04
54870;BME280;40756;-37.950;145.008;2022-12-18T05:17:06;101851.01;;;25.58;25.13
54870;BME280;40756;-37.950;145.008;2022-12-18T05:19:35;101851.42;;;25.51;25.41
54870;BME280;40756;-37.950;145.008;2022-12-18T05:22:05;101852.55;;;26.04;24.89
54870;BME280;40756;-37.950;145.008;2022-12-18T05:24:39;101851.99;;;26.68;24.65
54870;BME280;40756;-37.950;145.008;2022-12-18T05:27:09;101858.16;;;25.92;25.32
54870;BME280;40756;-37.950;145.008;2022-12-18T05:29:38;101852.82;;;25.92;25.69
54870;BME280;40756;-37.950;145.008;2022-12-18T05:32:07;101853.53;;;25.24;26.11
54870;BME280;40756;-37.950;145.008;2022-12-18T05:34:37;101847.32;;;25.95;26.29
54870;BME280;40756;-37.950;145.008;2022-12-18T05:37:06;101841.83;;;25.50;26.18
54870;BME280;40756;-37.950;145.008;2022-12-18T05:39:36;101841.05;;;25.87;26.08
54870;BME280;40756;-37.950;145.008;2022-12-18T05:42:05;101839.66;;;26.24;25.55
54870;BME280;40756;-37.950;145.008;2022-12-18T05:44:34;101840.43;;;25.93;26.02
54870;BME280;40756;-37.950;145.008;2022-12-18T05:47:04;101836.04;;;26.50;25.19
54870;BME280;40756;-37.950;145.008;2022-12-18T05:49:34;101839.42;;;25.95;25.21
54870;BME280;40756;-37.950;145.008;2022-12-18T05:52:04;101838.78;;;26.16;25.00
54870;BME280;40756;-37.950;145.008;2022-12-18T05:54:34;101830.81;;;25.50;24.48
54870;BME280;40756;-37.950;145.008;2022-12-18T05:57:03;101834.21;;;25.27;25.67
54870;BME280;40756;-37.950;145.008;2022-12-18T05:59:32;101835.38;;;24.95;25.67
54870;BME280;40756;-37.950;145.008;2022-12-18T06:02:01;101827.96;;;25.34;25.88
54870;BME280;40756;-37.950;145.008;2022-12-18T06:04:31;101820.84;;;25.16;25.94
54870;BME280;40756;-37.950;145.008;2022-12-18T06:07:01;101829.62;;;25.35;26.45
54870;BME280;40756;-37.950;145.008;2022-12-18T06:09:31;101826.39;;;24.97;26.86
54870;BME280;40756;-37.950;145.008;2022-12-18T06:12:00;101812.53;;;24.58;26.15
54870;BME280;40756;-37.950;145.008;2022-12-18T06:14:29;101811.12;;;24.93;26.64
54870;BME280;40756;-37.950;145.008;2022-12-18T06:16:59;101807.31;;;25.60;26.64
54870;BME280;40756;-37.950;145.008;2022-12-18T06:19:28;101804.47;;;25.88;26.22
54870;BME280;40756;-37.950;145.008;2022-12-18T06:21:57;101806.26;;;24.71;25.94
54870;BME280;40756;-37.950;145.008;2022-12-18T06:24:27;101813.30;;;25.47;26.70
54870;BME280;40756;-37.950;145.008;2022-12-18T06:26:56;101809.34;;;24.09;27.66
54870;BME280;40756;-37.950;145.008;2022-12-18T06:29:26;101815.35;;;24.04;27.63
54870;BME280;40756;-37.950;145.008;2022-12-18T06:31:55;101810.07;;;24.84;28.24
54870;BME280;40756;-37.950;145.008;2022-12-18T06:34:24;101803.94;;;24.94;27.79
54870;BME280;40756;-37.950;145.008;2022-12-18T06:36:54;101802.03;;;24.47;27.79
54870;BME280;40756;-37.950;145.008;2022-12-18T06:39:23;101805.07;;;24.89;27.90
54870;BME280;40756;-37.950;145.008;2022-12-18T06:41:53;101801.44;;;24.25;27.75
54870;BME280;40756;-37.950;145.008;2022-12-18T06:44:22;101796.84;;;24.18;27.00
54870;BME280;40756;-37.950;145.008;2022-12-18T06:46:52;101803.47;;;23.80;28.52
54870;BME280;40756;-37.950;145.008;2022-12-18T06:49:21;101798.42;;;24.23;28.91
54870;BME280;40756;-37.950;145.008;2022-12-18T06:51:52;101790.79;;;23.85;28.56
54870;BME280;40756;-37.950;145.008;2022-12-18T06:54:22;101789.48;;;24.04;28.90
54870;BME280;40756;-37.950;145.008;2022-12-18T06:56:51;101776.36;;;24.55;28.63
54870;BME280;40756;-37.950;145.008;2022-12-18T06:59:20;101785.34;;;23.68;28.24
54870;BME280;40756;-37.950;145.008;2022-12-18T07:01:50;101789.03;;;23.66;29.15
54870;BME280;40756;-37.950;145.008;2022-12-18T07:04:19;101782.67;;;24.41;28.37
54870;BME280;40756;-37.950;145.008;2022-12-18T07:06:49;101781.19;;;23.34;28.43
54870;BME280;40756;-37.950;145.008;2022-12-18T07:09:18;101780.70;;;24.11;28.75
54870;BME280;40756;-37.950;145.008;2022-12-18T07:11:47;101782.69;;;24.09;29.23
54870;BME280;40756;-37.950;145.008;2022-12-18T07:14:17;101789.02;;;23.78;29.46
54870;BME280;40756;-37.950;145.008;2022-12-18T07:16:46;101790.56;;;23.61;29.56
54870;BME280;40756;-37.950;145.008;2022-12-18T07:19:15;101789.26;;;23.30;29.38
54870;BME280;40756;-37.950;145.008;2022-12-18T07:21:45;101798.20;;;23.47;29.61
54870;BME280;40756;-37.950;145.008;2022-12-18T07:24:14;101798.52;;;23.03;29.65
54870;BME280;40756;-37.950;145.008;2022-12-18T07:26:45;101802.62;;;23.40;29.57
54870;BME280;40756;-37.950;145.008;2022-12-18T07:29:15;101801.16;;;23.76;29.34
54870;BME280;40756;-37.950;145.008;2022-12-18T07:31:45;101809.64;;;23.25;29.61
54870;BME280;40756;-37.950;145.008;2022-12-18T07:34:14;101800.05;;;22.97;29.80
54870;BME280;40756;-37.950;145.008;2022-12-18T07:36:44;101805.77;;;23.24;30.23
54870;BME280;40756;-37.950;145.008;2022-12-18T07:39:13;101805.40;;;23.78;29.57
54870;BME280;40756;-37.950;145.008;2022-12-18T07:41:43;101806.46;;;24.15;29.10
54870;BME280;40756;-37.950;145.008;2022-12-18T07:44:13;101809.47;;;23.68;29.30
54870;BME280;40756;-37.950;145.008;2022-12-18T07:46:42;101816.18;;;23.42;29.25
54870;BME280;40756;-37.950;145.008;2022-12-18T07:49:11;101818.10;;;22.82;29.91
54870;BME280;40756;-37.950;145.008;2022-12-18T07:51:41;101817.96;;;23.34;29.80
54870;BME280;40756;-37.950;145.008;2022-12-18T07:54:12;101820.90;;;23.02;29.94
54870;BME280;40756;-37.950;145.008;2022-12-18T07:56:41;101819.95;;;22.94;30.33
54870;BME280;40756;-37.950;145.008;2022-12-18T07:59:11;101834.11;;;22.64;30.01
54870;BME280;40756;-37.950;145.008;2022-12-18T08:01:41;101824.93;;;22.66;30.39
54870;BME280;40756;-37.950;145.008;2022-12-18T08:04:11;101837.37;;;22.40;30.56
54870;BME280;40756;-37.950;145.008;2022-12-18T08:06:40;101842.01;;;22.71;30.59
54870;BME280;40756;-37.950;145.008;2022-12-18T08:09:11;101844.75;;;22.52;30.30
54870;BME280;40756;-37.950;145.008;2022-12-18T08:11:46;101847.60;;;22.06;30.68
54870;BME280;40756;-37.950;145.008;2022-12-18T08:14:15;101845.23;;;21.62;31.65
54870;BME280;40756;-37.950;145.008;2022-12-18T08:16:45;101850.31;;;21.53;31.51
54870;BME280;40756;-37.950;145.008;2022-12-18T08:19:14;101856.92;;;21.91;31.78
54870;BME280;40756;-37.950;145.008;2022-12-18T08:21:44;101857.35;;;21.78;31.75
54870;BME280;40756;-37.950;145.008;2022-12-18T08:24:13;101859.06;;;21.50;31.79
54870;BME280;40756;-37.950;145.008;2022-12-18T08:26:43;101854.87;;;21.16;32.36
54870;BME280;40756;-37.950;145.008;2022-12-18T08:29:12;101862.78;;;20.72;32.63
54870;BME280;40756;-37.950;145.008;2022-12-18T08:31:42;101868.05;;;20.60;33.25
54870;BME280;40756;-37.950;145.008;2022-12-18T08:34:11;101866.06;;;20.92;32.87
54870;BME280;40756;-37.950;145.008;2022-12-18T08:36:41;101870.72;;;21.24;33.04
54870;BME280;40756;-37.950;145.008;2022-12-18T08:39:10;101886.08;;;20.78;33.55
54870;BME280;40756;-37.950;145.008;2022-12-18T08:41:40;101877.59;;;20.80;33.45
54870;BME280;40756;-37.950;145.008;2022-12-18T08:44:09;101872.54;;;20.55;33.33
54870;BME280;40756;-37.950;145.008;2022-12-18T08:46:40;101881.44;;;20.03;33.75
54870;BME280;40756;-37.950;145.008;2022-12-18T08:49:11;101885.10;;;19.85;34.03
54870;BME280;40756;-37.950;145.008;2022-12-18T08:51:41;101879.47;;;19.94;33.62
54870;BME280;40756;-37.950;145.008;2022-12-18T08:54:13;101887.38;;;20.38;33.55
54870;BME280;40756;-37.950;145.008;2022-12-18T08:56:43;101893.38;;;20.29;33.79
54870;BME280;40756;-37.950;145.008;2022-12-18T08:59:12;101892.43;;;20.00;33.81
54870;BME280;40756;-37.950;145.008;2022-12-18T09:01:42;101893.60;;;19.88;33.45
54870;BME280;40756;-37.950;145.008;2022-12-18T09:04:12;101895.98;;;20.13;33.49
54870;BME280;40756;-37.950;145.008;2022-12-18T09:06:42;101898.19;;;20.43;33.31
54870;BME280;40756;-37.950;145.008;2022-12-18T09:09:12;101900.27;;;20.18;33.36
54870;BME280;40756;-37.950;145.008;2022-12-18T09:11:41;101908.14;;;19.50;34.30
54870;BME280;40756;-37.950;145.008;2022-12-18T09:14:11;101905.23;;;19.58;34.42
54870;BME280;40756;-37.950;145.008;2022-12-18T09:16:41;101904.75;;;20.08;34.59
54870;BME280;40756;-37.950;145.008;2022-12-18T09:19:14;101917.37;;;19.01;35.04
54870;BME280;40756;-37.950;145.008;2022-12-18T09:21:43;101915.02;;;19.55;34.93
54870;BME280;40756;-37.950;145.008;2022-12-18T09:24:14;101913.93;;;18.81;36.11
54870;BME280;40756;-37.950;145.008;2022-12-18T09:26:44;101915.13;;;19.17;35.90
54870;BME280;40756;-37.950;145.008;2022-12-18T09:29:13;101916.60;;;19.65;35.59
54870;BME280;40756;-37.950;145.008;2022-12-18T09:31:43;101922.03;;;18.83;36.32
54870;BME280;40756;-37.950;145.008;2022-12-18T09:34:12;101914.29;;;18.77;36.53
54870;BME280;40756;-37.950;145.008;2022-12-18T09:36:42;101919.69;;;19.25;36.31
54870;BME280;40756;-37.950;145.008;2022-12-18T09:39:12;101916.36;;;18.79;36.71
54870;BME280;40756;-37.950;145.008;2022-12-18T09:41:44;101912.96;;;19.03;36.50
54870;BME280;40756;-37.950;145.008;2022-12-18T09:44:33;101915.68;;;19.27;36.25
54870;BME280;40756;-37.950;145.008;2022-12-18T09:47:09;101912.17;;;19.23;36.42
54870;BME280;40756;-37.950;145.008;2022-12-18T09:49:44;101913.87;;;19.25;36.44
54870;BME280;40756;-37.950;145.008;2022-12-18T09:52:19;101917.97;;;19.07;36.79
54870;BME280;40756;-37.950;145.008;2022-12-18T09:54:56;101921.82;;;19.06;36.78
54870;BME280;40756;-37.950;145.008;2022-12-18T09:57:29;101916.89;;;18.42;37.76
54870;BME280;40756;-37.950;145.008;2022-12-18T10:00:04;101921.22;;;18.71;38.19
54870;BME280;40756;-37.950;145.008;2022-12-18T10:02:36;101921.81;;;18.80;37.94
54870;BME280;40756;-37.950;145.008;2022-12-18T10:05:09;101926.99;;;18.45;38.39
54870;BME280;40756;-37.950;145.008;2022-12-18T10:07:49;101929.13;;;18.68;38.52
54870;BME280;40756;-37.950;145.008;2022-12-18T10:10:35;101931.94;;;18.53;38.71
54870;BME280;40756;-37.950;145.008;2022-12-18T10:13:14;101930.86;;;18.54;38.62
54870;BME280;40756;-37.950;145.008;2022-12-18T10:15:54;101941.81;;;18.33;40.14
54870;BME280;40756;-37.950;145.008;2022-12-18T10:18:35;101935.87;;;18.35;40.06
54870;BME280;40756;-37.950;145.008;2022-12-18T10:21:13;101938.98;;;18.38;39.43
54870;BME280;40756;-37.950;145.008;2022-12-18T10:23:49;101940.88;;;18.50;39.23
54870;BME280;40756;-37.950;145.008;2022-12-18T10:26:24;101941.77;;;18.67;39.15
54870;BME280;40756;-37.950;145.008;2022-12-18T10:28:54;101948.81;;;18.68;39.03
54870;BME280;40756;-37.950;145.008;2022-12-18T10:31:26;101949.75;;;18.14;39.76
54870;BME280;40756;-37.950;145.008;2022-12-18T10:33:56;101952.57;;;18.14;39.85
54870;BME280;40756;-37.950;145.008;2022-12-18T10:36:26;101954.45;;;17.51;40.75
54870;BME280;40756;-37.950;145.008;2022-12-18T10:39:16;101956.45;;;17.63;40.58
54870;BME280;40756;-37.950;145.008;2022-12-18T10:41:46;101965.62;;;17.89;40.85
54870;BME280;40756;-37.950;145.008;2022-12-18T10:44:19;101963.02;;;17.22;41.61
54870;BME280;40756;-37.950;145.008;2022-12-18T10:46:50;101967.67;;;18.28;40.54
54870;BME280;40756;-37.950;145.008;2022-12-18T10:49:25;101963.86;;;17.36;41.29
54870;BME280;40756;-37.950;145.008;2022-12-18T10:52:11;101955.56;;;17.49;41.21
54870;BME280;40756;-37.950;145.008;2022-12-18T10:54:48;101956.86;;;17.43;41.85
54870;BME280;40756;-37.950;145.008;2022-12-18T10:57:33;101960.72;;;17.08;41.78
54870;BME280;40756;-37.950;145.008;2022-12-18T11:00:24;101965.68;;;16.90;42.78
54870;BME280;40756;-37.950;145.008;2022-12-18T11:02:54;101964.46;;;17.23;42.05
54870;BME280;40756;-37.950;145.008;2022-12-18T11:05:29;101962.15;;;16.66;43.40
54870;BME280;40756;-37.950;145.008;2022-12-18T11:08:00;101971.90;;;17.07;43.25
54870;BME280;40756;-37.950;145.008;2022-12-18T11:10:32;101971.68;;;16.82;43.06
54870;BME280;40756;-37.950;145.008;2022-12-18T11:13:21;101970.54;;;16.57;43.96
54870;BME280;40756;-37.950;145.008;2022-12-18T11:15:52;101977.08;;;16.86;44.16
54870;BME280;40756;-37.950;145.008;2022-12-18T11:18:27;101972.56;;;16.48;43.87
54870;BME280;40756;-37.950;145.008;2022-12-18T11:20:59;101979.92;;;16.55;43.83
54870;BME280;40756;-37.950;145.008;2022-12-18T11:23:30;101986.66;;;16.85;43.49
54870;BME280;40756;-37.950;145.008;2022-12-18T11:26:01;101992.06;;;16.68;43.72
54870;BME280;40756;-37.950;145.008;2022-12-18T11:28:37;101991.71;;;16.70;43.80
54870;BME280;40756;-37.950;145.008;2022-12-18T11:31:22;101992.79;;;16.94;43.30
54870;BME280;40756;-37.950;145.008;2022-12-18T11:34:04;101979.24;;;16.84;43.67
54870;BME280;40756;-37.950;145.008;2022-12-18T11:36:45;101985.35;;;16.80;43.65
54870;BME280;40756;-37.950;145.008;2022-12-18T11:39:20;101979.82;;;16.71;43.73
54870;BME280;40756;-37.950;145.008;2022-12-18T11:41:56;101976.55;;;16.80;43.44
54870;BME280;40756;-37.950;145.008;2022-12-18T11:44:29;101983.36;;;16.78;43.61
54870;BME280;40756;-37.950;145.008;2022-12-18T11:47:05;101988.75;;;16.65;44.12
54870;BME280;40756;-37.950;145.008;2022-12-18T11:49:39;101988.47;;;16.52;44.50
54870;BME280;40756;-37.950;145.008;2022-12-18T11:52:15;101984.06;;;16.00;44.86
54870;BME280;40756;-37.950;145.008;2022-12-18T11:54:45;101989.68;;;16.46;44.57
54870;BME280;40756;-37.950;145.008;2022-12-18T11:57:22;101985.46;;;15.98;44.96
54870;BME280;40756;-37.950;145.008;2022-12-18T12:00:02;101986.79;;;16.19;44.70
54870;BME280;40756;-37.950;145.008;2022-12-18T12:02:46;101982.28;;;16.40;44.69
54870;BME280;40756;-37.950;145.008;2022-12-18T12:05:29;101981.63;;;15.97;44.97
54870;BME280;40756;-37.950;145.008;2022-12-18T12:08:08;101981.21;;;16.28;44.87
54870;BME280;40756;-37.950;145.008;2022-12-18T12:10:51;101982.72;;;16.06;45.36
54870;BME280;40756;-37.950;145.008;2022-12-18T12:13:39;101988.02;;;16.18;45.03
54870;BME280;40756;-37.950;145.008;2022-12-18T12:16:20;101986.63;;;16.13;45.41
54870;BME280;40756;-37.950;145.008;2022-12-18T12:19:02;101990.71;;;16.16;45.66
54870;BME280;40756;-37.950;145.008;2022-12-18T12:21:39;101995.27;;;16.39;45.30
54870;BME280;40756;-37.950;145.008;2022-12-18T12:24:21;101998.78;;;16.10;45.86
54870;BME280;40756;-37.950;145.008;2022-12-18T12:27:00;102002.59;;;16.13;45.37
54870;BME280;40756;-37.950;145.008;2022-12-18T12:29:43;102004.53;;;16.42;45.33
54870;BME280;40756;-37.950;145.008;2022-12-18T12:32:27;102002.43;;;15.85;45.76
54870;BME280;40756;-37.950;145.008;2022-12-18T12:35:06;102001.06;;;16.12;45.80
54870;BME280;40756;-37.950;145.008;2022-12-18T12:37:45;102006.88;;;15.73;46.02
54870;BME280;40756;-37.950;145.008;2022-12-18T12:40:20;102002.26;;;16.29;45.42
54870;BME280;40756;-37.950;145.008;2022-12-18T12:42:56;102002.23;;;15.88;46.24
54870;BME280;40756;-37.950;145.008;2022-12-18T12:45:32;102003.10;;;15.69;46.41
54870;BME280;40756;-37.950;145.008;2022-12-18T12:48:06;102004.59;;;15.93;46.17